createdAt,value
2023-05-06T00:01:20.447Z,5.20
2023-05-06T00:03:48.131Z,5.90
2023-05-06T00:06:15.531Z,6.30
2023-05-06T00:08:42.365Z,5.90
2023-05-06T00:11:09.172Z,5.90
2023-05-06T00:13:36.066Z,5.60
2023-05-06T00:16:02.841Z,6.10
2023-05-06T00:18:29.716Z,5.40
2023-05-06T00:20:56.825Z,6.40
2023-05-06T00:23:23.629Z,6.10
2023-05-06T00:25:50.595Z,5.20
2023-05-06T00:28:17.430Z,6.60
2023-05-06T00:30:44.193Z,6.80
2023-05-06T00:33:11.012Z,6.00
2023-05-06T00:35:37.847Z,5.50
2023-05-06T00:38:10.947Z,5.60
2023-05-06T00:40:38.052Z,5.80
2023-05-06T00:43:04.937Z,5.80
2023-05-06T00:45:32.331Z,6.50
2023-05-06T00:47:59.433Z,6.60
2023-05-06T00:50:28.478Z,5.90
2023-05-06T00:52:58.545Z,5.70
2023-05-06T00:55:26.420Z,5.80
2023-05-06T00:57:53.917Z,6.00
2023-05-06T01:00:21.689Z,5.00
2023-05-06T01:02:49.323Z,6.00
2023-05-06T01:05:18.508Z,6.60
2023-05-06T01:07:53.390Z,5.80
2023-05-06T01:10:38.962Z,5.50
2023-05-06T01:13:14.388Z,6.10
2023-05-06T01:15:46.148Z,5.60
2023-05-06T01:18:22.842Z,6.20
2023-05-06T01:20:53.134Z,5.70
2023-05-06T01:23:20.309Z,5.60
2023-05-06T01:25:47.808Z,6.10
2023-05-06T01:28:14.706Z,5.80
2023-05-06T01:30:53.804Z,5.40
2023-05-06T01:33:43.542Z,6.80
2023-05-06T01:36:20.156Z,6.00
2023-05-06T01:38:52.608Z,6.20
2023-05-06T01:41:21.549Z,5.90
2023-05-06T01:43:49.472Z,5.60
2023-05-06T01:46:20.215Z,5.10
2023-05-06T01:48:49.863Z,5.50
2023-05-06T01:51:16.695Z,5.30
2023-05-06T01:53:43.466Z,5.40
2023-05-06T01:56:10.306Z,5.80
2023-05-06T01:58:37.615Z,5.20
2023-05-06T02:01:04.367Z,5.80
2023-05-06T02:03:31.342Z,5.80
2023-05-06T02:05:58.230Z,5.20
2023-05-06T02:08:25.025Z,5.80
2023-05-06T02:10:52.252Z,5.50
2023-05-06T02:13:19.774Z,5.30
2023-05-06T02:15:46.704Z,5.00
2023-05-06T02:18:13.595Z,6.40
2023-05-06T02:20:40.338Z,5.10
2023-05-06T02:23:07.093Z,4.90
2023-05-06T02:25:33.863Z,5.80
2023-05-06T02:28:00.656Z,5.60
2023-05-06T02:30:30.821Z,6.00
2023-05-06T02:32:58.321Z,4.80
2023-05-06T02:35:25.097Z,5.20
2023-05-06T02:37:51.885Z,5.50
2023-05-06T02:40:18.734Z,5.70
2023-05-06T02:42:46.213Z,5.40
2023-05-06T02:45:13.154Z,5.00
2023-05-06T02:47:40.688Z,5.30
2023-05-06T02:50:07.697Z,5.20
2023-05-06T02:52:35.217Z,5.70
2023-05-06T02:55:02.797Z,5.50
2023-05-06T02:57:29.594Z,5.10
2023-05-06T02:59:56.590Z,6.00
2023-05-06T03:02:23.387Z,6.00
2023-05-06T03:04:50.250Z,5.60
2023-05-06T03:07:17.380Z,5.60
2023-05-06T03:09:44.206Z,6.30
2023-05-06T03:12:11.950Z,5.60
2023-05-06T03:14:39.118Z,5.30
2023-05-06T03:17:06.064Z,5.60
2023-05-06T03:19:32.845Z,5.10
2023-05-06T03:22:00.132Z,5.70
2023-05-06T03:24:26.904Z,5.50
2023-05-06T03:26:53.663Z,5.60
2023-05-06T03:29:20.558Z,5.50
2023-05-06T03:31:51.363Z,5.50
2023-05-06T03:34:18.249Z,5.90
2023-05-06T03:36:46.025Z,5.30
2023-05-06T03:39:12.805Z,5.20
2023-05-06T03:41:39.879Z,6.30
2023-05-06T03:44:06.604Z,6.80
2023-05-06T03:46:33.415Z,6.20
2023-05-06T03:49:00.998Z,5.80
2023-05-06T03:51:27.795Z,6.10
2023-05-06T03:53:55.028Z,6.10
2023-05-06T03:56:22.810Z,6.40
2023-05-06T03:58:49.617Z,6.30
2023-05-06T04:01:18.240Z,5.80
2023-05-06T04:03:45.150Z,6.20
2023-05-06T04:06:12.246Z,6.10
2023-05-06T04:08:39.076Z,6.00
2023-05-06T04:11:06.987Z,5.70
2023-05-06T04:13:35.115Z,6.00
2023-05-06T04:16:03.080Z,5.80
2023-05-06T04:18:30.824Z,6.00
2023-05-06T04:20:57.577Z,5.60
2023-05-06T04:23:24.323Z,5.90
2023-05-06T04:25:51.148Z,5.60
2023-05-06T04:28:17.918Z,5.40
2023-05-06T04:30:45.886Z,6.20
2023-05-06T04:33:13.184Z,6.60
2023-05-06T04:35:41.196Z,6.00
2023-05-06T04:38:07.996Z,5.60
2023-05-06T04:40:36.689Z,5.20
2023-05-06T04:43:04.913Z,5.80
2023-05-06T04:45:32.702Z,5.60
2023-05-06T04:47:59.512Z,6.40
2023-05-06T04:50:26.480Z,5.50
2023-05-06T04:52:53.265Z,5.90
2023-05-06T04:55:20.254Z,5.60
2023-05-06T04:57:47.024Z,5.70
2023-05-06T05:00:14.758Z,5.60
2023-05-06T05:02:43.007Z,5.50
2023-05-06T05:05:11.103Z,5.30
2023-05-06T05:07:38.050Z,6.20
2023-05-06T05:10:05.841Z,5.90
2023-05-06T05:12:32.651Z,5.40
2023-05-06T05:14:59.414Z,5.60
2023-05-06T05:17:26.242Z,5.40
2023-05-06T05:19:53.025Z,5.90
2023-05-06T05:22:19.748Z,5.80
2023-05-06T05:24:47.131Z,6.30
2023-05-06T05:27:13.921Z,5.70
2023-05-06T05:29:40.770Z,5.80
2023-05-06T05:32:07.666Z,5.60
2023-05-06T05:34:34.449Z,4.90
2023-05-06T05:37:01.224Z,5.70
2023-05-06T05:39:28.313Z,5.50
2023-05-06T05:41:55.082Z,6.10
2023-05-06T05:44:21.914Z,6.00
2023-05-06T05:46:51.129Z,5.80
2023-05-06T05:49:18.028Z,5.50
2023-05-06T05:51:45.012Z,5.80
2023-05-06T05:54:11.784Z,5.80
2023-05-06T05:56:38.530Z,5.50
2023-05-06T05:59:05.841Z,5.30
2023-05-06T06:01:32.646Z,5.50
2023-05-06T06:04:00.164Z,5.90
2023-05-06T06:06:27.269Z,5.70
2023-05-06T06:08:54.076Z,5.40
2023-05-06T06:11:21.725Z,5.80
2023-05-06T06:13:48.492Z,5.20
2023-05-06T06:16:15.357Z,5.40
2023-05-06T06:18:42.160Z,5.60
2023-05-06T06:21:08.930Z,4.90
2023-05-06T06:23:35.905Z,5.60
2023-05-06T06:26:04.120Z,5.80
2023-05-06T06:28:31.596Z,5.30
2023-05-06T06:30:58.399Z,5.30
2023-05-06T06:33:25.269Z,6.00
2023-05-06T06:35:51.994Z,5.10
2023-05-06T06:38:18.893Z,5.70
2023-05-06T06:40:45.930Z,5.50
2023-05-06T06:43:12.731Z,6.50
2023-05-06T06:45:39.618Z,7.30
2023-05-06T06:48:06.489Z,6.20
2023-05-06T06:50:33.465Z,5.30
2023-05-06T06:53:00.893Z,6.10
2023-05-06T06:55:28.256Z,6.10
2023-05-06T06:57:55.026Z,4.90
2023-05-06T07:00:22.000Z,5.40
2023-05-06T07:02:49.693Z,5.30
2023-05-06T07:05:16.574Z,6.40
2023-05-06T07:07:43.355Z,6.00
2023-05-06T07:10:10.839Z,6.10
2023-05-06T07:12:37.726Z,5.80
2023-05-06T07:15:06.961Z,5.90
2023-05-06T07:17:33.928Z,5.70
2023-05-06T07:20:00.940Z,5.40
2023-05-06T07:22:29.389Z,5.70
2023-05-06T07:24:56.294Z,5.50
2023-05-06T07:27:24.205Z,5.50
2023-05-06T07:29:51.291Z,5.20
2023-05-06T07:32:18.102Z,5.90
2023-05-06T07:34:44.872Z,5.20
2023-05-06T07:37:11.724Z,5.40
2023-05-06T07:39:38.625Z,5.30
2023-05-06T07:42:05.650Z,5.70
2023-05-06T07:44:32.471Z,5.40
2023-05-06T07:46:59.832Z,5.00
2023-05-06T07:49:28.838Z,5.60
2023-05-06T07:51:55.888Z,6.10
2023-05-06T07:54:23.153Z,5.60
2023-05-06T07:56:50.154Z,6.00
2023-05-06T07:59:16.936Z,6.40
2023-05-06T08:01:43.714Z,6.00
2023-05-06T08:04:10.534Z,4.90
2023-05-06T08:06:37.334Z,5.30
2023-05-06T08:09:04.346Z,5.40
2023-05-06T08:11:31.069Z,5.70
2023-05-06T08:13:58.557Z,5.80
2023-05-06T08:16:31.071Z,5.50
2023-05-06T08:18:57.901Z,4.60
2023-05-06T08:21:24.670Z,5.20
2023-05-06T08:23:52.118Z,5.10
2023-05-06T08:26:18.914Z,5.00
2023-05-06T08:28:45.781Z,5.10
2023-05-06T08:31:12.615Z,5.70
2023-05-06T08:33:39.327Z,5.30
2023-05-06T08:36:06.350Z,4.80
2023-05-06T08:38:33.149Z,5.20
2023-05-06T08:41:08.074Z,5.10
2023-05-06T08:43:42.269Z,5.60
2023-05-06T08:46:09.875Z,4.80
2023-05-06T08:48:37.596Z,4.70
2023-05-06T08:51:04.777Z,5.10
2023-05-06T08:53:33.702Z,5.10
2023-05-06T08:56:07.881Z,6.00
2023-05-06T08:58:36.054Z,5.10
2023-05-06T09:01:04.308Z,4.80
2023-05-06T09:03:31.896Z,4.80
2023-05-06T09:05:58.895Z,4.70
2023-05-06T09:08:25.906Z,5.30
2023-05-06T09:10:53.091Z,4.40
2023-05-06T09:13:20.055Z,5.10
2023-05-06T09:15:49.208Z,4.90
2023-05-06T09:18:16.931Z,5.30
2023-05-06T09:20:46.562Z,4.70
2023-05-06T09:23:16.056Z,5.30
2023-05-06T09:28:12.339Z,5.10
2023-05-06T09:30:41.368Z,4.90
2023-05-06T09:33:08.851Z,4.90
2023-05-06T09:35:41.064Z,4.80
2023-05-06T09:38:08.985Z,5.10
2023-05-06T09:40:39.649Z,5.20
2023-05-06T09:43:06.928Z,5.10
2023-05-06T09:45:33.967Z,4.90
2023-05-06T09:48:01.236Z,5.30
2023-05-06T09:50:28.884Z,4.40
2023-05-06T09:52:56.723Z,5.40
2023-05-06T09:55:26.996Z,5.20
2023-05-06T09:57:55.643Z,5.70
2023-05-06T10:00:28.350Z,5.40
2023-05-06T10:02:56.175Z,5.10
2023-05-06T10:05:34.685Z,5.50
2023-05-06T10:08:02.287Z,6.20
2023-05-06T10:10:29.921Z,6.20
2023-05-06T10:12:57.124Z,6.30
2023-05-06T10:15:26.323Z,5.00
2023-05-06T10:17:54.089Z,5.40
2023-05-06T10:20:24.358Z,5.80
2023-05-06T10:23:20.660Z,5.40
2023-05-06T10:25:52.096Z,5.60
2023-05-06T10:28:23.907Z,5.30
2023-05-06T10:30:54.271Z,5.20
2023-05-06T10:33:24.412Z,4.90
2023-05-06T10:36:04.191Z,4.30
2023-05-06T10:38:42.556Z,4.60
2023-05-06T10:41:15.139Z,4.80
2023-05-06T10:44:04.501Z,4.70
2023-05-06T10:46:31.794Z,4.80
2023-05-06T10:49:04.766Z,5.00
2023-05-06T10:51:33.243Z,4.70
2023-05-06T10:54:05.939Z,4.60
2023-05-06T10:56:59.602Z,4.50
2023-05-06T10:59:31.581Z,4.90
2023-05-06T11:02:20.286Z,4.60
2023-05-06T11:04:53.213Z,4.50
2023-05-06T11:07:24.400Z,4.80
2023-05-06T11:10:01.713Z,4.70
2023-05-06T11:12:53.000Z,6.00
2023-05-06T11:15:36.327Z,5.40
2023-05-06T11:18:30.031Z,5.20
2023-05-06T11:21:02.883Z,5.30
2023-05-06T11:23:49.718Z,6.80
2023-05-06T11:26:16.908Z,5.80
2023-05-06T11:28:46.235Z,5.40
2023-05-06T11:31:14.809Z,6.20
2023-05-06T11:33:55.248Z,8.30
2023-05-06T11:36:22.160Z,5.50
2023-05-06T11:38:53.285Z,5.60
2023-05-06T11:41:22.192Z,6.10
2023-05-06T11:43:50.381Z,6.10
2023-05-06T11:46:21.517Z,6.30
2023-05-06T11:48:48.925Z,6.90
2023-05-06T11:51:16.320Z,7.50
2023-05-06T11:53:43.115Z,6.90
2023-05-06T11:56:09.921Z,6.50
2023-05-06T11:58:36.686Z,7.00
2023-05-06T12:01:04.734Z,6.70
2023-05-06T12:03:33.554Z,7.00
2023-05-06T12:06:01.343Z,7.20
2023-05-06T12:08:33.906Z,7.20
2023-05-06T12:11:08.579Z,7.20
2023-05-06T12:13:40.908Z,7.00
2023-05-06T12:16:08.652Z,8.40
2023-05-06T12:18:36.361Z,7.80
2023-05-06T12:21:03.817Z,7.50
2023-05-06T12:23:30.697Z,8.70
2023-05-06T12:26:04.332Z,10.80
2023-05-06T12:28:33.161Z,9.90
2023-05-06T12:31:00.954Z,9.50
2023-05-06T12:33:28.047Z,9.10
2023-05-06T12:36:07.639Z,8.50
2023-05-06T12:41:01.040Z,8.40
2023-05-06T12:43:31.534Z,8.10
2023-05-06T12:46:07.411Z,7.80
2023-05-06T12:48:34.666Z,8.40
2023-05-06T12:51:17.008Z,9.10
2023-05-06T12:53:43.748Z,8.80
2023-05-06T12:56:10.481Z,9.80
2023-05-06T12:58:38.273Z,10.10
2023-05-06T13:01:06.485Z,10.20
2023-05-06T13:03:38.391Z,9.80
2023-05-06T13:06:05.924Z,9.40
2023-05-06T13:08:32.942Z,9.80
2023-05-06T13:11:01.804Z,10.10
2023-05-06T13:13:28.860Z,9.60
2023-05-06T13:15:55.992Z,9.40
2023-05-06T13:18:22.868Z,9.90
2023-05-06T13:20:51.049Z,10.30
2023-05-06T13:23:19.721Z,10.80
2023-05-06T13:26:02.917Z,10.90
2023-05-06T13:28:33.339Z,10.90
2023-05-06T13:31:00.397Z,10.90
2023-05-06T13:33:27.420Z,11.10
2023-05-06T13:35:54.321Z,10.10
2023-05-06T13:38:21.436Z,10.00
2023-05-06T13:40:53.193Z,10.50
2023-05-06T13:43:21.211Z,11.20
2023-05-06T13:45:48.015Z,10.20
2023-05-06T13:48:15.400Z,11.10
2023-05-06T13:50:43.594Z,11.10
2023-05-06T13:53:11.296Z,12.70
2023-05-06T13:55:38.981Z,12.00
2023-05-06T13:58:07.098Z,11.70
2023-05-06T14:00:36.261Z,14.60
2023-05-06T14:03:03.601Z,14.10
2023-05-06T14:05:30.780Z,13.00
2023-05-06T14:07:57.699Z,12.90
2023-05-06T14:10:25.042Z,15.10
2023-05-06T14:12:52.040Z,13.70
2023-05-06T14:15:18.965Z,12.40
2023-05-06T14:17:46.083Z,12.70
2023-05-06T14:20:12.919Z,11.90
2023-05-06T14:22:41.540Z,12.40
2023-05-06T14:25:09.542Z,13.00
2023-05-06T14:27:36.768Z,12.00
2023-05-06T14:30:09.448Z,12.90
2023-05-06T14:32:37.577Z,14.50
2023-05-06T14:35:04.993Z,16.70
2023-05-06T14:37:31.830Z,18.00
2023-05-06T14:39:58.528Z,14.90
2023-05-06T14:42:25.497Z,13.80
2023-05-06T14:44:52.255Z,13.00
2023-05-06T14:47:19.055Z,13.60
2023-05-06T14:49:45.989Z,13.10
2023-05-06T14:52:13.034Z,13.30
2023-05-06T14:54:43.058Z,13.10
2023-05-06T14:57:10.926Z,12.40
2023-05-06T14:59:38.806Z,13.30
2023-05-06T15:02:09.208Z,14.30
2023-05-06T15:04:37.368Z,14.10
2023-05-06T15:07:04.665Z,18.60
2023-05-06T15:09:31.562Z,17.30
2023-05-06T15:11:59.014Z,15.70
2023-05-06T15:14:26.085Z,12.10
2023-05-06T15:16:57.521Z,11.00
2023-05-06T15:19:24.830Z,10.60
2023-05-06T15:21:51.664Z,12.90
2023-05-06T15:24:18.678Z,11.90
2023-05-06T15:26:45.618Z,15.50
2023-05-06T15:29:12.960Z,14.10
2023-05-06T15:31:41.283Z,14.30
2023-05-06T15:34:10.782Z,15.40
2023-05-06T15:36:38.842Z,14.80
2023-05-06T15:39:05.835Z,15.80
2023-05-06T15:41:34.359Z,15.40
2023-05-06T15:46:43.593Z,15.60
2023-05-06T15:49:39.531Z,15.70
2023-05-06T15:52:00.499Z,15.80
2023-05-06T15:54:29.017Z,16.80
2023-05-06T15:56:56.585Z,16.80
2023-05-06T15:59:23.940Z,16.90
2023-05-06T16:02:24.522Z,16.20
2023-05-06T16:04:37.978Z,15.90
2023-05-06T16:07:05.243Z,17.50
2023-05-06T16:09:32.055Z,17.90
2023-05-06T16:11:59.265Z,18.60
2023-05-06T16:14:25.999Z,17.70
2023-05-06T16:16:52.750Z,17.40
2023-05-06T16:19:19.935Z,18.30
2023-05-06T16:21:46.859Z,17.50
2023-05-06T16:24:13.994Z,18.30
2023-05-06T16:26:41.689Z,19.80
2023-05-06T16:29:08.625Z,18.50
2023-05-06T16:31:35.540Z,18.50
2023-05-06T16:34:02.736Z,19.40
2023-05-06T16:36:29.576Z,19.20
2023-05-06T16:38:56.539Z,19.10
2023-05-06T16:41:23.813Z,19.10
2023-05-06T16:43:50.949Z,18.80
2023-05-06T16:46:18.057Z,18.10
2023-05-06T16:48:44.990Z,17.90
2023-05-06T16:51:13.809Z,18.40
2023-05-06T16:53:40.844Z,19.90
2023-05-06T16:56:07.950Z,19.90
2023-05-06T16:58:35.240Z,20.90
2023-05-06T17:01:02.022Z,19.10
2023-05-06T17:03:29.120Z,19.80
2023-05-06T17:05:55.907Z,20.30
2023-05-06T17:08:24.518Z,21.40
2023-05-06T17:10:53.681Z,21.10
2023-05-06T17:13:20.600Z,20.90
2023-05-06T17:15:47.352Z,19.70
2023-05-06T17:18:14.396Z,22.20
2023-05-06T17:20:54.475Z,20.80
2023-05-06T17:23:23.931Z,21.00
2023-05-06T17:25:51.632Z,21.10
2023-05-06T17:28:19.047Z,20.80
2023-05-06T17:30:46.803Z,21.90
2023-05-06T17:33:13.690Z,19.90
2023-05-06T17:35:40.503Z,21.10
2023-05-06T17:38:08.089Z,20.60
2023-05-06T17:40:34.934Z,21.50
2023-05-06T17:43:01.849Z,22.70
2023-05-06T17:45:29.746Z,22.10
2023-05-06T17:47:57.093Z,22.50
2023-05-06T17:50:24.506Z,21.50
2023-05-06T17:52:53.698Z,23.50
2023-05-06T17:55:24.244Z,21.00
2023-05-06T17:57:52.857Z,21.30
2023-05-06T18:00:20.038Z,22.60
2023-05-06T18:02:47.200Z,22.10
2023-05-06T18:05:14.327Z,21.40
2023-05-06T18:07:41.327Z,21.30
2023-05-06T18:10:09.016Z,20.80
2023-05-06T18:12:36.776Z,20.80
2023-05-06T18:15:03.911Z,19.70
2023-05-06T18:17:30.819Z,20.50
2023-05-06T18:19:57.885Z,19.60
2023-05-06T18:22:24.826Z,19.10
2023-05-06T18:25:07.457Z,18.80
2023-05-06T18:27:35.008Z,19.10
2023-05-06T18:30:03.189Z,18.50
2023-05-06T18:32:30.005Z,18.50
2023-05-06T18:34:56.797Z,17.80
2023-05-06T18:37:23.796Z,18.30
2023-05-06T18:39:50.651Z,19.60
2023-05-06T18:42:17.603Z,17.90
2023-05-06T18:44:44.596Z,18.50
2023-05-06T18:47:12.008Z,18.80
2023-05-06T18:49:39.177Z,18.50
2023-05-06T18:52:06.436Z,19.00
2023-05-06T18:54:33.522Z,18.80
2023-05-06T18:57:01.446Z,21.00
2023-05-06T18:59:28.407Z,19.70
2023-05-06T19:01:55.301Z,20.10
2023-05-06T19:04:22.314Z,19.70
2023-05-06T19:06:49.923Z,19.50
2023-05-06T19:09:16.902Z,19.20
2023-05-06T19:11:44.122Z,20.00
2023-05-06T19:14:11.138Z,21.10
2023-05-06T19:16:37.923Z,23.00
2023-05-06T19:19:07.503Z,25.60
2023-05-06T19:21:40.285Z,23.00
2023-05-06T19:24:07.277Z,21.90
2023-05-06T19:26:34.242Z,20.30
2023-05-06T19:29:01.245Z,19.50
2023-05-06T19:31:28.236Z,18.30
2023-05-06T19:33:55.334Z,19.80
2023-05-06T19:36:22.549Z,18.80
2023-05-06T19:38:49.438Z,19.60
2023-05-06T19:41:16.410Z,18.80
2023-05-06T19:43:44.534Z,18.80
2023-05-06T19:46:12.327Z,18.60
2023-05-06T19:48:39.713Z,18.30
2023-05-06T19:51:07.569Z,17.40
2023-05-06T19:53:34.751Z,17.90
2023-05-06T19:56:12.747Z,17.40
2023-05-06T19:58:40.200Z,17.90
2023-05-06T20:01:07.099Z,17.80
2023-05-06T20:03:35.768Z,17.80
2023-05-06T20:06:03.481Z,17.90
2023-05-06T20:08:31.575Z,16.70
2023-05-06T20:10:58.674Z,17.70
2023-05-06T20:13:28.380Z,17.10
2023-05-06T20:18:21.975Z,15.00
2023-05-06T20:20:48.971Z,15.10
2023-05-06T20:23:15.766Z,16.00
2023-05-06T20:25:42.915Z,16.10
2023-05-06T20:28:10.129Z,15.70
2023-05-06T20:30:39.161Z,14.90
2023-05-06T20:33:06.087Z,15.60
2023-05-06T20:35:38.357Z,14.30
2023-05-06T20:38:06.262Z,14.70
2023-05-06T20:40:35.823Z,15.00
2023-05-06T20:45:31.165Z,15.10
2023-05-06T20:47:58.545Z,15.50
2023-05-06T20:50:26.098Z,16.70
2023-05-06T20:52:54.564Z,16.20
2023-05-06T20:55:23.665Z,17.50
2023-05-06T20:57:51.461Z,17.20
2023-05-06T21:00:19.198Z,17.40
2023-05-06T21:02:46.351Z,18.10
2023-05-06T21:05:13.868Z,17.50
2023-05-06T21:07:42.961Z,17.90
2023-05-06T21:10:11.244Z,18.40
2023-05-06T21:12:39.396Z,17.70
2023-05-06T21:15:07.001Z,18.70
2023-05-06T21:17:34.085Z,20.00
2023-05-06T21:20:01.434Z,20.50
2023-05-06T21:22:29.031Z,17.70
2023-05-06T21:24:56.348Z,19.60
2023-05-06T21:27:23.392Z,18.20
2023-05-06T21:29:50.370Z,17.40
2023-05-06T21:32:17.436Z,16.00
2023-05-06T21:34:44.222Z,16.30
2023-05-06T21:37:12.314Z,16.20
2023-05-06T21:39:39.089Z,16.00
2023-05-06T21:42:06.027Z,15.70
2023-05-06T21:44:33.021Z,15.30
2023-05-06T21:46:59.975Z,15.10
2023-05-06T21:49:26.860Z,14.80
2023-05-06T21:51:53.751Z,14.00
2023-05-06T21:54:21.238Z,13.30
2023-05-06T21:56:48.145Z,14.30
2023-05-06T21:59:15.075Z,14.60
2023-05-06T22:01:41.922Z,16.10
2023-05-06T22:04:12.996Z,16.80
2023-05-06T22:06:40.695Z,16.30
2023-05-06T22:09:09.881Z,16.20
2023-05-06T22:11:40.660Z,17.20
2023-05-06T22:14:08.034Z,16.40
2023-05-06T22:16:35.806Z,14.90
2023-05-06T22:19:05.704Z,13.80
2023-05-06T22:21:49.346Z,13.40
2023-05-06T22:24:16.994Z,13.40
2023-05-06T22:26:43.975Z,15.60
2023-05-06T22:29:11.020Z,13.10
2023-05-06T22:31:38.385Z,13.50
2023-05-06T22:34:05.395Z,12.90
2023-05-06T22:36:35.098Z,13.20
2023-05-06T22:41:30.722Z,11.00
2023-05-06T22:43:57.630Z,12.10
2023-05-06T22:46:24.451Z,11.40
2023-05-06T22:48:51.957Z,12.30
2023-05-06T22:51:21.242Z,11.60
2023-05-06T22:53:48.229Z,11.80
2023-05-06T22:56:15.224Z,12.40
2023-05-06T22:58:41.975Z,11.30
2023-05-06T23:01:09.015Z,12.10
2023-05-06T23:03:36.359Z,11.10
2023-05-06T23:06:04.702Z,12.00
2023-05-06T23:08:31.831Z,10.30
2023-05-06T23:10:58.683Z,11.10
2023-05-06T23:13:26.797Z,10.80
2023-05-06T23:15:53.880Z,10.30
2023-05-06T23:18:21.852Z,10.10
2023-05-06T23:20:48.894Z,10.60
2023-05-06T23:23:15.804Z,9.80
2023-05-06T23:25:42.762Z,10.10
2023-05-06T23:28:09.664Z,10.80
2023-05-06T23:30:36.648Z,9.60
2023-05-06T23:33:04.243Z,10.00
2023-05-06T23:35:31.159Z,10.00
2023-05-06T23:37:58.110Z,10.10
2023-05-06T23:40:24.953Z,10.80
2023-05-06T23:42:51.890Z,10.80
2023-05-06T23:45:20.043Z,9.80
2023-05-06T23:47:47.021Z,10.20
2023-05-06T23:50:14.395Z,9.30
2023-05-06T23:52:41.604Z,9.70
2023-05-06T23:55:08.881Z,8.90
2023-05-06T23:57:36.028Z,10.00
